createdAt,value
2017-06-21T00:00:00.882Z,1.57
2017-06-21T00:02:30.022Z,1.37
2017-06-21T00:04:58.253Z,1.40
2017-06-21T00:07:26.486Z,1.20
2017-06-21T00:09:55.519Z,1.20
2017-06-21T00:12:23.762Z,1.20
2017-06-21T00:14:52.014Z,1.10
2017-06-21T00:17:20.275Z,1.40
2017-06-21T00:19:48.514Z,1.60
2017-06-21T00:22:16.752Z,2.10
2017-06-21T00:24:45.790Z,1.63
2017-06-21T00:27:14.027Z,1.70
2017-06-21T00:29:42.278Z,1.97
2017-06-21T00:32:10.535Z,2.20
2017-06-21T00:34:38.770Z,2.27
2017-06-21T00:37:07.783Z,2.40
2017-06-21T00:39:36.070Z,1.93
2017-06-21T00:42:04.311Z,1.90
2017-06-21T00:44:32.555Z,1.87
2017-06-21T00:47:00.580Z,1.90
2017-06-21T00:49:29.583Z,1.70
2017-06-21T00:51:57.819Z,2.30
2017-06-21T00:54:26.850Z,1.90
2017-06-21T00:56:55.086Z,2.00
2017-06-21T00:59:23.322Z,2.50
2017-06-21T01:01:51.587Z,2.37
2017-06-21T01:04:19.822Z,2.13
2017-06-21T01:06:48.827Z,1.97
2017-06-21T01:09:17.090Z,2.13
2017-06-21T01:11:45.378Z,2.40
2017-06-21T01:14:13.617Z,2.23
2017-06-21T01:16:41.870Z,1.87
2017-06-21T01:19:10.107Z,2.20
2017-06-21T01:21:39.115Z,2.20
2017-06-21T01:24:07.375Z,2.13
2017-06-21T01:26:35.614Z,2.40
2017-06-21T01:29:03.852Z,2.27
2017-06-21T01:31:32.991Z,2.20
2017-06-21T01:34:01.231Z,2.63
2017-06-21T01:36:29.471Z,2.20
2017-06-21T01:38:57.726Z,2.20
2017-06-21T01:41:25.963Z,2.30
2017-06-21T01:43:54.211Z,2.20
2017-06-21T01:46:22.495Z,2.00
2017-06-21T01:48:51.499Z,1.90
2017-06-21T01:51:19.734Z,2.40
2017-06-21T01:53:48.777Z,2.13
2017-06-21T01:56:17.018Z,2.40
2017-06-21T01:58:45.334Z,2.10
2017-06-21T02:01:14.363Z,2.30
2017-06-21T02:03:42.601Z,2.17
2017-06-21T02:06:10.834Z,2.50
2017-06-21T02:08:39.102Z,2.03
2017-06-21T02:11:07.336Z,2.33
2017-06-21T02:13:36.338Z,2.50
2017-06-21T02:16:04.602Z,2.00
2017-06-21T02:18:32.848Z,2.40
2017-06-21T02:21:01.843Z,2.10
2017-06-21T02:23:30.112Z,2.20
2017-06-21T02:25:58.351Z,2.37
2017-06-21T02:28:26.583Z,1.97
2017-06-21T02:30:55.616Z,2.50
2017-06-21T02:33:23.884Z,2.07
2017-06-21T02:35:52.119Z,2.60
2017-06-21T02:38:20.383Z,2.43
2017-06-21T02:40:48.627Z,2.60
2017-06-21T02:43:16.867Z,2.30
2017-06-21T02:45:45.903Z,2.10
2017-06-21T02:48:14.144Z,2.77
2017-06-21T02:50:42.379Z,1.90
2017-06-21T02:53:10.639Z,2.77
2017-06-21T02:55:38.875Z,2.40
2017-06-21T02:58:07.908Z,2.50
2017-06-21T03:00:36.523Z,2.90
2017-06-21T03:03:05.523Z,2.40
2017-06-21T03:05:33.766Z,2.20
2017-06-21T03:08:02.791Z,2.40
2017-06-21T03:10:31.049Z,2.30
2017-06-21T03:12:59.309Z,2.40
2017-06-21T03:15:32.950Z,2.30
2017-06-21T03:18:01.194Z,2.10
2017-06-21T03:20:30.195Z,2.37
2017-06-21T03:22:58.459Z,3.30
2017-06-21T03:25:26.699Z,2.40
2017-06-21T03:27:55.707Z,2.50
2017-06-21T03:30:24.086Z,2.80
2017-06-21T03:32:52.317Z,2.40
2017-06-21T03:35:20.555Z,2.53
2017-06-21T03:37:49.933Z,2.33
2017-06-21T03:40:18.966Z,2.80
2017-06-21T03:42:47.198Z,3.00
2017-06-21T03:45:15.463Z,2.70
2017-06-21T03:47:43.714Z,2.80
2017-06-21T03:50:12.011Z,2.70
2017-06-21T03:52:40.270Z,3.00
2017-06-21T03:55:08.506Z,2.80
2017-06-21T03:57:36.746Z,2.90
2017-06-21T04:00:05.012Z,3.07
2017-06-21T04:02:33.251Z,2.87
2017-06-21T04:05:02.255Z,2.40
2017-06-21T04:07:30.527Z,3.13
2017-06-21T04:09:58.760Z,3.23
2017-06-21T04:12:26.998Z,2.87
2017-06-21T04:14:56.382Z,3.37
2017-06-21T04:17:25.390Z,3.10
2017-06-21T04:19:53.628Z,2.67
2017-06-21T04:22:22.653Z,2.60
2017-06-21T04:24:50.886Z,2.87
2017-06-21T04:27:19.127Z,2.97
2017-06-21T04:29:48.155Z,2.87
2017-06-21T04:32:16.390Z,2.70
2017-06-21T04:34:44.631Z,2.60
2017-06-21T04:37:12.890Z,3.00
2017-06-21T04:39:41.131Z,2.97
2017-06-21T04:42:10.165Z,2.70
2017-06-21T04:44:38.426Z,3.10
2017-06-21T04:47:06.667Z,2.80
2017-06-21T04:49:34.942Z,2.50
2017-06-21T04:52:03.551Z,2.70
2017-06-21T04:54:32.554Z,2.73
2017-06-21T04:57:00.791Z,2.47
2017-06-21T04:59:29.822Z,2.77
2017-06-21T05:01:58.058Z,2.50
2017-06-21T05:04:26.302Z,2.90
2017-06-21T05:06:54.563Z,2.90
2017-06-21T05:09:22.803Z,2.70
2017-06-21T05:11:51.807Z,2.70
2017-06-21T05:14:20.094Z,2.30
2017-06-21T05:16:48.326Z,3.10
2017-06-21T05:19:16.554Z,2.67
2017-06-21T05:21:45.594Z,2.90
2017-06-21T05:24:13.830Z,2.60
2017-06-21T05:26:42.075Z,2.73
2017-06-21T05:29:10.334Z,2.63
2017-06-21T05:31:38.583Z,2.50
2017-06-21T05:34:07.590Z,2.50
2017-06-21T05:36:35.851Z,2.73
2017-06-21T05:39:03.390Z,2.80
2017-06-21T05:41:31.627Z,2.60
2017-06-21T05:43:59.882Z,2.30
2017-06-21T05:46:28.127Z,2.13
2017-06-21T05:48:57.134Z,2.50
2017-06-21T05:51:25.395Z,2.20
2017-06-21T05:53:53.635Z,2.30
2017-06-21T05:56:22.638Z,2.03
2017-06-21T05:58:50.907Z,2.00
2017-06-21T06:01:18.958Z,2.00
2017-06-21T06:03:47.205Z,2.00
2017-06-21T06:06:15.463Z,2.10
2017-06-21T06:08:43.707Z,2.20
2017-06-21T06:11:11.942Z,1.97
2017-06-21T06:13:40.212Z,1.87
2017-06-21T06:16:09.247Z,1.97
2017-06-21T06:18:37.477Z,1.60
2017-06-21T06:21:05.743Z,1.90
2017-06-21T06:23:33.979Z,1.93
2017-06-21T06:26:02.215Z,1.60
2017-06-21T06:28:30.487Z,1.87
2017-06-21T06:30:59.487Z,1.93
2017-06-21T06:33:27.731Z,1.60
2017-06-21T06:35:56.755Z,1.60
2017-06-21T06:38:24.990Z,2.07
2017-06-21T06:40:53.235Z,1.50
2017-06-21T06:43:21.507Z,1.80
2017-06-21T06:45:49.750Z,1.60
2017-06-21T06:48:18.024Z,1.40
2017-06-21T06:50:46.283Z,1.90
2017-06-21T06:53:14.520Z,1.90
2017-06-21T06:55:43.531Z,1.53
2017-06-21T06:58:11.786Z,1.50
2017-06-21T07:00:40.023Z,1.70
2017-06-21T07:03:09.031Z,1.63
2017-06-21T07:05:37.308Z,1.60
2017-06-21T07:08:05.543Z,1.37
2017-06-21T07:10:33.790Z,1.57
2017-06-21T07:13:02.076Z,1.20
2017-06-21T07:15:30.327Z,1.47
2017-06-21T07:17:58.564Z,1.70
2017-06-21T07:20:26.822Z,1.50
2017-06-21T07:22:55.063Z,1.50
2017-06-21T07:25:24.067Z,1.40
2017-06-21T07:27:52.343Z,1.30
2017-06-21T07:30:20.395Z,1.60
2017-06-21T07:32:48.639Z,1.33
2017-06-21T07:35:16.904Z,1.87
2017-06-21T07:37:45.138Z,1.20
2017-06-21T07:40:14.150Z,1.30
2017-06-21T07:42:42.417Z,1.30
2017-06-21T07:45:10.667Z,1.40
2017-06-21T07:47:38.907Z,1.63
2017-06-21T07:50:07.187Z,1.40
2017-06-21T07:52:35.419Z,1.47
2017-06-21T07:55:04.419Z,1.30
2017-06-21T07:57:32.839Z,1.70
2017-06-21T08:00:01.847Z,1.30
2017-06-21T08:02:30.107Z,1.83
2017-06-21T08:04:58.370Z,1.73
2017-06-21T08:07:26.607Z,1.40
2017-06-21T08:09:55.606Z,1.50
2017-06-21T08:12:23.874Z,1.40
2017-06-21T08:14:52.127Z,1.20
2017-06-21T08:17:20.365Z,1.37
2017-06-21T08:19:49.399Z,1.20
2017-06-21T08:22:17.640Z,1.30
2017-06-21T08:24:45.888Z,1.17
2017-06-21T08:27:14.151Z,1.40
2017-06-21T08:29:42.396Z,1.33
2017-06-21T08:32:10.639Z,1.30
2017-06-21T08:34:39.679Z,1.60
2017-06-21T08:37:07.915Z,1.60
2017-06-21T08:39:36.154Z,1.20
2017-06-21T08:42:04.424Z,1.30
2017-06-21T08:44:32.658Z,1.40
2017-06-21T08:47:00.942Z,1.30
2017-06-21T08:49:29.220Z,1.30
2017-06-21T08:51:57.455Z,1.20
2017-06-21T08:54:25.696Z,1.50
2017-06-21T08:56:54.723Z,1.30
2017-06-21T08:59:22.963Z,1.30
2017-06-21T09:01:51.202Z,1.33
2017-06-21T09:04:19.469Z,1.50
2017-06-21T09:06:47.707Z,1.20
2017-06-21T09:09:16.716Z,1.17
2017-06-21T09:11:44.983Z,1.30
2017-06-21T09:14:13.222Z,1.10
2017-06-21T09:16:41.463Z,1.00
2017-06-21T09:19:10.502Z,1.20
2017-06-21T09:21:38.740Z,1.10
2017-06-21T09:24:06.976Z,1.20
2017-06-21T09:26:35.239Z,1.30
2017-06-21T09:29:03.479Z,1.23
2017-06-21T09:31:31.728Z,1.20
2017-06-21T09:34:00.780Z,1.10
2017-06-21T09:36:29.018Z,1.10
2017-06-21T09:38:57.280Z,1.20
2017-06-21T09:41:25.555Z,1.10
2017-06-21T09:43:53.789Z,1.20
2017-06-21T09:46:22.035Z,1.20
2017-06-21T09:48:50.295Z,1.23
2017-06-21T09:51:18.527Z,1.17
2017-06-21T09:53:47.540Z,1.17
2017-06-21T09:56:15.809Z,1.20
2017-06-21T09:58:44.070Z,1.10
2017-06-21T10:01:12.294Z,1.20
2017-06-21T10:03:40.489Z,1.00
2017-06-21T10:06:08.724Z,1.40
2017-06-21T10:08:36.962Z,1.20
2017-06-21T10:11:05.987Z,0.93
2017-06-21T10:13:34.226Z,1.23
2017-06-21T10:16:02.466Z,1.23
2017-06-21T10:18:30.727Z,0.90
2017-06-21T10:20:58.963Z,1.10
2017-06-21T10:23:28.007Z,1.10
2017-06-21T10:25:56.275Z,1.27
2017-06-21T10:28:24.515Z,1.27
2017-06-21T10:30:52.754Z,1.20
2017-06-21T10:33:21.014Z,1.00
2017-06-21T10:35:49.250Z,1.03
2017-06-21T10:38:17.494Z,1.40
2017-06-21T10:40:46.528Z,1.53
2017-06-21T10:43:14.794Z,1.40
2017-06-21T10:45:43.019Z,1.67
2017-06-21T10:48:11.323Z,1.40
2017-06-21T10:50:39.570Z,1.40
2017-06-21T10:53:07.829Z,1.60
2017-06-21T10:55:36.089Z,1.20
2017-06-21T10:58:04.350Z,1.70
2017-06-21T11:00:32.575Z,1.30
2017-06-21T11:03:00.846Z,1.30
2017-06-21T11:05:29.087Z,1.40
2017-06-21T11:07:57.679Z,1.37
2017-06-21T11:10:25.943Z,1.57
2017-06-21T11:12:54.180Z,1.83
2017-06-21T11:15:22.419Z,1.70
2017-06-21T11:17:51.451Z,1.87
2017-06-21T11:20:19.695Z,1.63
2017-06-21T11:22:48.407Z,1.77
2017-06-21T11:25:16.663Z,1.77
2017-06-21T11:27:44.909Z,2.10
2017-06-21T11:30:13.143Z,1.80
2017-06-21T11:32:41.422Z,1.73
2017-06-21T11:35:09.662Z,1.50
2017-06-21T11:37:37.898Z,1.90
2017-06-21T11:40:06.158Z,1.50
2017-06-21T11:42:34.394Z,1.60
2017-06-21T11:45:03.405Z,1.97
2017-06-21T11:47:31.691Z,1.60
2017-06-21T11:49:59.918Z,1.50
2017-06-21T11:52:28.158Z,1.50
2017-06-21T11:54:57.187Z,1.20
2017-06-21T11:57:25.431Z,1.30
2017-06-21T11:59:53.670Z,1.50
2017-06-21T12:02:21.944Z,1.50
2017-06-21T12:04:50.221Z,1.57
2017-06-21T12:07:18.451Z,1.60
2017-06-21T12:09:46.718Z,1.50
2017-06-21T12:12:14.970Z,1.50
2017-06-21T12:14:43.258Z,1.43
2017-06-21T12:17:11.564Z,1.30
2017-06-21T12:19:40.583Z,1.30
2017-06-21T12:22:08.823Z,1.57
2017-06-21T12:24:37.086Z,1.37
2017-06-21T12:27:05.328Z,1.50
2017-06-21T12:29:34.334Z,1.30
2017-06-21T12:32:02.607Z,1.33
2017-06-21T12:34:30.842Z,1.23
2017-06-21T12:36:59.082Z,1.37
2017-06-21T12:39:28.118Z,1.30
2017-06-21T12:41:56.363Z,1.43
2017-06-21T12:44:24.599Z,1.40
2017-06-21T12:46:52.875Z,1.40
2017-06-21T12:49:21.109Z,0.97
2017-06-21T12:51:49.350Z,1.30
2017-06-21T12:54:18.386Z,1.20
2017-06-21T12:56:46.623Z,1.37
2017-06-21T12:59:14.866Z,1.10
2017-06-21T13:01:43.136Z,1.40
2017-06-21T13:04:11.371Z,1.40
2017-06-21T13:06:40.375Z,1.20
2017-06-21T13:09:08.639Z,1.47
2017-06-21T13:11:36.875Z,1.10
2017-06-21T13:14:05.124Z,1.17
2017-06-21T13:16:34.152Z,1.30
2017-06-21T13:19:02.387Z,1.50
2017-06-21T13:21:30.628Z,1.37
2017-06-21T13:23:59.033Z,1.10
2017-06-21T13:26:27.078Z,1.30
2017-06-21T13:28:55.340Z,1.47
2017-06-21T13:31:23.607Z,1.40
2017-06-21T13:33:51.848Z,1.10
2017-06-21T13:36:20.087Z,1.27
2017-06-21T13:38:48.358Z,1.17
2017-06-21T13:41:16.595Z,1.40
2017-06-21T13:43:45.603Z,1.20
2017-06-21T13:46:13.884Z,1.30
2017-06-21T13:48:42.126Z,1.00
2017-06-21T13:51:10.362Z,1.20
2017-06-21T13:53:38.619Z,1.13
2017-06-21T13:56:06.859Z,1.10
2017-06-21T13:58:35.871Z,1.13
2017-06-21T14:01:04.130Z,1.13
2017-06-21T14:03:32.375Z,1.00
2017-06-21T14:06:01.378Z,1.27
2017-06-21T14:08:29.659Z,1.00
2017-06-21T14:10:58.455Z,1.20
2017-06-21T14:13:26.695Z,1.23
2017-06-21T14:15:54.955Z,0.90
2017-06-21T14:18:23.190Z,0.90
2017-06-21T14:20:51.266Z,1.00
2017-06-21T14:23:19.527Z,0.97
2017-06-21T14:25:47.775Z,0.93
2017-06-21T14:28:16.167Z,1.20
2017-06-21T14:30:44.448Z,1.10
2017-06-21T14:33:13.463Z,1.20
2017-06-21T14:35:41.699Z,1.13
2017-06-21T14:38:09.963Z,0.90
2017-06-21T14:40:38.194Z,1.10
2017-06-21T14:43:06.435Z,1.00
2017-06-21T14:45:34.507Z,1.00
2017-06-21T14:48:03.517Z,1.00
2017-06-21T14:50:31.750Z,1.10
2017-06-21T14:53:00.795Z,1.00
2017-06-21T14:55:29.047Z,0.90
2017-06-21T14:57:57.296Z,0.90
2017-06-21T15:00:25.551Z,1.27
2017-06-21T15:02:53.790Z,0.90
2017-06-21T15:05:22.026Z,0.93
2017-06-21T15:07:51.059Z,1.00
2017-06-21T15:10:19.295Z,0.90
2017-06-21T15:12:47.535Z,1.20
2017-06-21T15:15:15.802Z,1.00
2017-06-21T15:17:44.035Z,1.00
2017-06-21T15:20:13.038Z,1.10
2017-06-21T15:22:41.323Z,0.90
2017-06-21T15:25:09.554Z,1.00
2017-06-21T15:27:37.787Z,1.00
2017-06-21T15:30:06.822Z,0.93
2017-06-21T15:32:35.058Z,1.00
2017-06-21T15:35:03.299Z,1.00
2017-06-21T15:37:31.563Z,1.17
2017-06-21T15:39:59.798Z,1.07
2017-06-21T15:42:28.804Z,0.87
2017-06-21T15:44:57.062Z,1.00
2017-06-21T15:47:25.295Z,1.10
2017-06-21T15:49:54.306Z,1.00
2017-06-21T15:52:22.571Z,1.10
2017-06-21T15:54:50.803Z,0.93
2017-06-21T15:57:19.807Z,0.90
2017-06-21T15:59:48.076Z,1.00
2017-06-21T16:02:16.310Z,0.90
2017-06-21T16:04:44.555Z,1.00
2017-06-21T16:07:13.586Z,1.00
2017-06-21T16:09:41.823Z,1.20
2017-06-21T16:12:10.067Z,1.00
2017-06-21T16:14:38.335Z,0.87
2017-06-21T16:17:06.571Z,1.00
2017-06-21T16:19:35.566Z,1.00
2017-06-21T16:22:03.838Z,1.10
2017-06-21T16:24:32.074Z,1.00
2017-06-21T16:27:00.315Z,0.80
2017-06-21T16:29:29.352Z,0.80
2017-06-21T16:31:57.591Z,0.90
2017-06-21T16:34:25.869Z,0.80
2017-06-21T16:36:54.131Z,1.03
2017-06-21T16:39:22.373Z,0.90
2017-06-21T16:41:50.613Z,0.80
2017-06-21T16:44:19.071Z,1.10
2017-06-21T16:46:47.326Z,0.90
2017-06-21T16:49:15.570Z,0.90
2017-06-21T16:51:44.610Z,1.07
2017-06-21T16:54:12.842Z,0.70
2017-06-21T16:56:41.083Z,0.90
2017-06-21T16:59:10.106Z,1.30
2017-06-21T17:01:38.351Z,0.80
2017-06-21T17:04:06.596Z,0.87
2017-06-21T17:06:34.899Z,0.90
2017-06-21T17:09:03.246Z,1.07
2017-06-21T17:11:31.474Z,1.30
2017-06-21T17:13:59.744Z,1.10
2017-06-21T17:16:27.979Z,1.00
2017-06-21T17:18:56.222Z,1.20
2017-06-21T17:21:25.267Z,1.40
2017-06-21T17:23:53.505Z,1.30
2017-06-21T17:26:21.742Z,1.07
2017-06-21T17:28:50.027Z,1.30
2017-06-21T17:31:18.263Z,1.40
2017-06-21T17:33:46.507Z,1.10
2017-06-21T17:36:15.539Z,1.10
2017-06-21T17:38:43.806Z,1.13
2017-06-21T17:41:12.059Z,1.10
2017-06-21T17:43:40.332Z,1.17
2017-06-21T17:46:08.568Z,1.20
2017-06-21T17:48:36.805Z,1.13
2017-06-21T17:51:05.091Z,1.07
2017-06-21T17:53:33.331Z,1.10
2017-06-21T17:56:01.572Z,1.30
2017-06-21T17:58:29.835Z,1.20
2017-06-21T18:00:58.078Z,1.00
2017-06-21T18:03:27.087Z,1.20
2017-06-21T18:05:55.350Z,1.23
2017-06-21T18:08:23.632Z,1.10
2017-06-21T18:10:51.864Z,1.40
2017-06-21T18:13:20.146Z,1.00
2017-06-21T18:15:48.411Z,1.20
2017-06-21T18:18:16.655Z,1.10
2017-06-21T18:20:44.923Z,1.30
2017-06-21T18:23:13.195Z,1.13
2017-06-21T18:25:41.438Z,1.10
2017-06-21T18:28:09.715Z,1.20
2017-06-21T18:30:37.955Z,1.20
2017-06-21T18:33:06.195Z,1.10
2017-06-21T18:35:34.487Z,1.20
2017-06-21T18:38:02.748Z,1.10
2017-06-21T18:40:30.978Z,1.20
2017-06-21T18:42:59.247Z,1.20
2017-06-21T18:45:27.487Z,1.20
2017-06-21T18:47:55.736Z,1.20
2017-06-21T18:50:24.003Z,1.10
2017-06-21T18:52:52.295Z,1.13
2017-06-21T18:55:20.527Z,1.30
2017-06-21T18:57:48.802Z,1.13
2017-06-21T19:00:17.651Z,1.20
2017-06-21T19:02:45.903Z,1.10
2017-06-21T19:05:14.191Z,1.40
2017-06-21T19:07:42.568Z,1.33
2017-06-21T19:10:10.804Z,1.20
2017-06-21T19:12:39.066Z,1.20
2017-06-21T19:15:07.308Z,1.50
2017-06-21T19:17:35.547Z,1.27
2017-06-21T19:20:04.592Z,1.00
2017-06-21T19:22:32.831Z,1.20
2017-06-21T19:25:01.071Z,1.33
2017-06-21T19:27:29.335Z,1.27
2017-06-21T19:29:57.580Z,1.10
2017-06-21T19:32:25.823Z,1.30
2017-06-21T19:34:54.862Z,1.20
2017-06-21T19:37:25.031Z,1.10
2017-06-21T19:39:53.366Z,1.10
2017-06-21T19:42:22.415Z,1.10
2017-06-21T19:44:50.664Z,1.10
2017-06-21T19:47:18.894Z,1.27
2017-06-21T19:49:47.174Z,1.40
2017-06-21T19:52:16.102Z,1.50
2017-06-21T19:54:45.334Z,1.30
2017-06-21T19:57:13.600Z,1.30
2017-06-21T19:59:41.863Z,1.50
2017-06-21T20:02:09.940Z,1.30
2017-06-21T20:04:38.204Z,1.27
2017-06-21T20:07:06.443Z,1.40
2017-06-21T20:09:34.704Z,1.20
2017-06-21T20:12:02.983Z,1.30
2017-06-21T20:14:31.234Z,1.50
2017-06-21T20:16:59.472Z,1.20
2017-06-21T20:19:27.739Z,1.30
2017-06-21T20:21:55.970Z,1.30
2017-06-21T20:24:24.215Z,1.40
2017-06-21T20:26:52.487Z,1.30
2017-06-21T20:29:20.963Z,1.60
2017-06-21T20:31:49.194Z,1.27
2017-06-21T20:34:17.484Z,1.47
2017-06-21T20:36:45.722Z,1.30
2017-06-21T20:39:13.972Z,1.30
2017-06-21T20:41:42.242Z,1.40
2017-06-21T20:44:10.482Z,1.33
2017-06-21T20:46:39.489Z,1.20
2017-06-21T20:49:07.763Z,1.50
2017-06-21T20:51:36.007Z,1.50
2017-06-21T20:54:04.244Z,1.27
2017-06-21T20:56:32.511Z,1.60
2017-06-21T20:59:00.750Z,1.40
2017-06-21T21:01:29.754Z,1.20
2017-06-21T21:03:58.020Z,1.63
2017-06-21T21:06:26.261Z,1.60
2017-06-21T21:08:54.499Z,1.50
2017-06-21T21:11:23.539Z,1.77
2017-06-21T21:13:51.779Z,1.57
2017-06-21T21:16:20.027Z,1.80
2017-06-21T21:18:48.290Z,1.93
2017-06-21T21:21:16.594Z,1.73
2017-06-21T21:23:44.831Z,1.77
2017-06-21T21:26:13.111Z,1.77
2017-06-21T21:28:41.352Z,2.37
2017-06-21T21:31:09.594Z,1.77
2017-06-21T21:33:37.871Z,1.90
2017-06-21T21:36:06.111Z,2.50
2017-06-21T21:38:34.342Z,2.00
2017-06-21T21:41:02.642Z,1.70
2017-06-21T21:43:30.899Z,1.80
2017-06-21T21:45:59.206Z,2.00
2017-06-21T21:48:28.244Z,2.20
2017-06-21T21:50:56.482Z,2.10
2017-06-21T21:53:24.723Z,2.40
2017-06-21T21:55:53.023Z,2.10
2017-06-21T21:58:21.259Z,2.23
2017-06-21T22:00:49.506Z,2.67
2017-06-21T22:03:17.774Z,2.53
2017-06-21T22:05:46.032Z,2.30
2017-06-21T22:08:14.275Z,2.40
2017-06-21T22:10:43.350Z,2.20
2017-06-21T22:13:12.346Z,2.50
2017-06-21T22:15:40.587Z,2.23
2017-06-21T22:18:09.657Z,2.37
2017-06-21T22:20:38.659Z,2.40
2017-06-21T22:23:07.058Z,2.17
2017-06-21T22:25:35.331Z,2.37
2017-06-21T22:28:03.576Z,2.03
2017-06-21T22:30:31.819Z,2.07
2017-06-21T22:33:00.087Z,2.87
2017-06-21T22:35:28.371Z,2.37
2017-06-21T22:37:56.651Z,2.10
2017-06-21T22:40:25.811Z,2.00
2017-06-21T22:42:54.046Z,2.30
2017-06-21T22:45:22.299Z,2.20
2017-06-21T22:47:50.583Z,2.20
2017-06-21T22:50:18.827Z,2.33
2017-06-21T22:52:47.070Z,2.30
2017-06-21T22:55:15.342Z,2.10
2017-06-21T22:57:43.578Z,1.77
2017-06-21T23:00:11.819Z,2.00
2017-06-21T23:02:40.862Z,1.90
2017-06-21T23:05:09.102Z,2.13
2017-06-21T23:07:37.354Z,1.90
2017-06-21T23:10:05.624Z,2.00
2017-06-21T23:12:33.887Z,1.60
2017-06-21T23:15:02.123Z,1.80
2017-06-21T23:17:30.405Z,1.80
2017-06-21T23:19:58.700Z,1.90
2017-06-21T23:22:27.703Z,1.80
2017-06-21T23:24:55.980Z,1.90
2017-06-21T23:27:24.231Z,1.77
2017-06-21T23:29:52.474Z,1.80
2017-06-21T23:32:20.739Z,1.87
2017-06-21T23:34:49.010Z,2.00
2017-06-21T23:37:17.252Z,1.63
2017-06-21T23:39:45.515Z,1.90
2017-06-21T23:42:13.751Z,1.77
2017-06-21T23:44:42.751Z,1.30
2017-06-21T23:47:11.023Z,1.60
2017-06-21T23:49:39.263Z,1.50
2017-06-21T23:52:07.495Z,1.80
2017-06-21T23:54:35.763Z,1.67
2017-06-21T23:57:04.787Z,1.60
2017-06-21T23:59:33.023Z,1.50
